Airfield :
LOGIN :

Register | Disclaimer

   EN    FR    IT 

 










Legend :    VFR   Marginal VFR   IFR   Intensive IFR   Very Intensive IFR
Visi :
Ceiling :
>= 8 km
>= 3000ft
5 to 8 km
1000 to 3000 ft
1500m to 5 km
500 to 1000 ft
800 to 1500m
200 to 500 ft
< 800m
< 200 ft
Symbols :   Thunderstorms  Fog  Heavy snow  Heavy precipitations  Wind > 20 kt
SIGMETs :     Misc.  Thunderstorms  Icing  Turbulence  Mountain Waves  Volcanic Ashes






- Airport Elevation : 844 ft
- IATA code : OSR


LKMT - Ostrava-Mosnov

CURRENT METAR :
  • 240800Z 29003KT 240V320 9999 FEW030 15/09 Q1013 NOSIG

EXPIRED METARs :
  • 240730Z 30003KT 260V350 9999 FEW027 15/09 Q1013 NOSIG
  • 240700Z 33004KT 9999 FEW040 15/09 Q1012 NOSIG
  • 240630Z 31003KT 280V350 9999 FEW025 14/09 Q1012 NOSIG
  • 240600Z 01006KT 340V040 9999 FEW025 SCT033 14/10 Q1012 NOSIG
  • 240530Z 02006KT 9999 SCT033 14/12 Q1012 NOSIG

TAF TAF LKMT
Valid from the 24 at 06:00 until the 25 at 12:00 UTC


240500Z 2406/2512 22014KT 9999 SCT035
TEMPO 2406/2416 BKN025
TEMPO 2406/2411 23016G26KT
PROB30
TEMPO 2406/2416 -RA BKN013
BECMG 2418/2420 20008KT CAVOK



MET'MAP, your aeronautical weather chart ! - Copyright ORBIFLY December 2007 - Disclaimer

ORBIFLY MET'MAP TEAM :

Programming & Development : Alexandra Zaïnal
Concept & original design : Baudouin d'Aumeries
Assistance for programming : Marc-Olivier Méhu
Technical & hardware support : Manuel Goepfert

Contact : metmap@orbifly.com




SOURCES & CREDITS :

   NOAA